• Join FlightAware (Why Join?)
  • Login
  • US Flag 
08:28AM EDT


 

Airport Tracker/Info


-or-


 

Live Flight TrackerFlight Track Log ✈ AAL1413 ✈ 24-Apr-2012 ✈ KDFW - KLAS

Flight Track Log - Related Links

Times and Time Zones

All times are in EDT time to prevent confusion due to time zone crossing. See the AAL1413 flight status page for this flight to view local times or setup timezone preferences in your user account.

Time Position Orientation Groundspeed Altitude Reporting Facility
EDT Latitude Longitude Course Direction KTS MPH feet Rate Location/Type
10:50AM 32.8702 -97.0333 207° Southwest  Level FlightAware Approximate
10:51AM 32.7615 -97.0346 348° North  Level FlightAware Approximate
10:52AM 32.8372 -97.0533 180° South 203 234 2,700  Level FAA TRACON SMA TRACON (SMA)
10:52AM 32.7975 -97.0533 201° Southwest 237 273 4,000 2,100 Climbing FAA TRACON SMA TRACON (SMA)
10:53AM 32.7536 -97.0731 267° West 266 306 5,500 2,400 Climbing FAA TRACON SMA TRACON (SMA)
10:54AM 32.7508 -97.1314 282° West 267 307 7,200 2,520 Climbing FAA TRACON SMA TRACON (SMA)
10:54AM 32.7606 -97.1869 283° West 278 320 8,900 1,800 Climbing FAA TRACON SMA TRACON (SMA)
10:55AM 32.7728 -97.2489 283° West 275 316 9,600 1,260 Climbing FAA TRACON SMA TRACON (SMA)
10:56AM 32.7839 -97.3050 283° West 284 327 10,600 1,440 Climbing FAA TRACON SMA TRACON (SMA)
10:56AM 32.7972 -97.3758 283° West 319 367 11,600 1,980 Climbing FAA TRACON SMA TRACON (SMA)
10:57AM 32.8122 -97.4522 283° West 343 395 13,300 2,220 Climbing FAA TRACON SMA TRACON (SMA)
10:57AM 32.8258 -97.5222 282° West 354 407 14,600 2,100 Climbing FAA TRACON SMA TRACON (SMA)
10:58AM 32.8411 -97.6044 283° West 366 421 16,100 2,280 Climbing FAA TRACON SMA TRACON (SMA)
10:59AM 32.8572 -97.6881 278° West 376 433 17,700 2,040 Climbing FAA TRACON SMA TRACON (SMA)
10:59AM 32.8664 -97.7658 270° West 387 445 18,800 1,800 Climbing FAA TRACON SMA TRACON (SMA)
11:00AM 32.8667 -97.8572 270° West 401 461 20,100 2,040 Climbing FAA TRACON SMA TRACON (SMA)
11:01AM 32.8661 -97.9494 270° West 403 464 21,600 1,800 Climbing FAA TRACON SMA TRACON (SMA)
11:02AM 32.8664 -98.0322 269° West 406 467 22,600 1,380 Climbing FAA TRACON SMA TRACON (SMA)
11:02AM 32.8653 -98.1272 270° West 417 480 23,500 1,380 Climbing FAA TRACON SMA TRACON (SMA)
11:03AM 32.8647 -98.2242 267° West 425 489 24,500 1,320 Climbing FAA TRACON SMA TRACON (SMA)
11:04AM 32.8589 -98.3581 280° West 431 496 25,800 1,140 Climbing Fort Worth Center
11:05AM 32.8786 -98.4969 286° West 431 496 26,900 1,140 Climbing Fort Worth Center
11:06AM 32.9128 -98.6408 287° West 431 496 28,100 1,500 Climbing Fort Worth Center
11:07AM 32.9489 -98.7825 286° West 438 504 30,000 1,560 Climbing Fort Worth Center
11:08AM 32.9808 -98.9192 286° West 438 504 31,300 960 Climbing Fort Worth Center
11:09AM 33.0125 -99.0533 286° West 438 504 32,000 300 Climbing Fort Worth Center
11:10AM 33.0442 -99.1878 285° West 433 498 32,000  Level Fort Worth Center
11:11AM 33.0756 -99.3247 286° West 433 498 32,000  Level Fort Worth Center
11:12AM 33.1089 -99.4619 285° West 433 498 32,000  Level Fort Worth Center
11:13AM 33.1400 -99.5992 285° West 433 498 32,000  Level Fort Worth Center
11:14AM 33.1708 -99.7364 285° West 433 498 32,000  Level Fort Worth Center
11:15AM 33.2017 -99.8736 286° West 433 498 32,000  Level Fort Worth Center
11:16AM 33.2344 -100.0111 285° West 433 498 32,000  Level Fort Worth Center
11:17AM 33.2667 -100.1514 284° West 433 498 32,000  Level Fort Worth Center
11:18AM 33.2950 -100.2889 284° West 433 498 32,000  Level Fort Worth Center
11:19AM 33.3250 -100.4292 286° West 433 498 32,000  Level Fort Worth Center
11:20AM 33.3572 -100.5669 286° West 433 498 32,000  Level Fort Worth Center
11:21AM 33.3892 -100.7047 284° West 433 498 32,000  Level Fort Worth Center
11:22AM 33.4189 -100.8428 285° West 433 498 32,000  Level Fort Worth Center
11:23AM 33.4483 -100.9783 285° West 433 498 32,000  Level Fort Worth Center
11:24AM 33.4817 -101.1317 283° West 433 498 32,000  Level Fort Worth Center
11:25AM 33.5086 -101.2722 284° West 438 504 32,000  Level Fort Worth Center
11:26AM 33.5378 -101.4106 285° West 433 498 32,000  Level Fort Worth Center
11:27AM 33.5686 -101.5517 286° West 433 498 32,000  Level Fort Worth Center
11:28AM 33.5978 -101.6778 284° West 438 504 32,000  Level Fort Worth Center
11:29AM 33.6300 -101.8314 284° West 438 504 32,000  Level Fort Worth Center
11:30AM 33.6583 -101.9725 283° West 433 498 32,000  Level Fort Worth Center
11:31AM 33.6864 -102.1139 285° West 443 510 32,000  Level Fort Worth Center
11:32AM 33.7131 -102.2375 284° West 432 497 32,000  Level Fort Worth Center
11:34AM 33.7742 -102.5322 285° West 431 496 32,000  Level Albuquerque Center
11:35AM 33.8044 -102.6656 284° West 430 495 32,000  Level Albuquerque Center
11:36AM 33.8328 -102.8064 283° West 430 495 32,000  Level Albuquerque Center
11:37AM 33.8589 -102.9475 284° West 428 493 32,000  Level Albuquerque Center
11:38AM 33.8892 -103.0908 282° West 433 498 32,000  Level Albuquerque Center
11:39AM 33.9131 -103.2322 286° West 433 498 32,000  Level Albuquerque Center
11:40AM 33.9447 -103.3658 280° West 428 493 32,000  Level Albuquerque Center
11:41AM 33.9686 -103.5250 284° West 428 493 32,000  Level Albuquerque Center
11:42AM 33.9958 -103.6617 283° West 431 496 32,000  Level Albuquerque Center
11:43AM 34.0231 -103.8033 283° West 431 496 32,000  Level Albuquerque Center
11:44AM 34.0503 -103.9475 283° West 437 503 32,000  Level Albuquerque Center
11:45AM 34.0769 -104.0867 283° West 432 497 32,000  Level Albuquerque Center
11:46AM 34.1014 -104.2111 282° West 432 497 32,000  Level Albuquerque Center
11:47AM 34.1258 -104.3508 284° West 427 491 32,000  Level Albuquerque Center
11:48AM 34.1542 -104.4903 282° West 432 497 32,000  Level Albuquerque Center
11:49AM 34.1783 -104.6300 282° West 433 498 32,000  Level Albuquerque Center
11:50AM 34.2022 -104.7647 283° West 426 490 32,000  Level Albuquerque Center
11:51AM 34.2306 -104.9194 283° West 426 490 32,000  Level Albuquerque Center
11:52AM 34.2561 -105.0569 281° West 426 490 32,000  Level Albuquerque Center
11:53AM 34.2797 -105.1997 283° West 431 496 32,000  Level Albuquerque Center
11:54AM 34.3050 -105.3347 282° West 431 496 32,000  Level Albuquerque Center
11:55AM 34.3303 -105.4750 283° West 431 496 32,000  Level Albuquerque Center
11:56AM 34.3553 -105.6103 281° West 433 498 32,000  Level Albuquerque Center
11:57AM 34.3781 -105.7531 285° West 428 493 32,000  Level Albuquerque Center
11:58AM 34.4092 -105.8961 282° West 427 491 32,000  Level Albuquerque Center
11:59AM 34.4314 -106.0217 280° West 433 498 32,000  Level Albuquerque Center
12:00PM 34.4517 -106.1572 285° West 426 490 32,000  Level Albuquerque Center
12:01PM 34.4844 -106.3081 281° West 426 490 32,000  Level Albuquerque Center
12:02PM 34.5019 -106.4186 283° West 426 490 32,000  Level Albuquerque Center
12:03PM 34.5322 -106.5744 280° West 436 502 32,000  Level Albuquerque Center
12:04PM 34.5519 -106.7106 284° West 420 483 32,000  Level Albuquerque Center
12:05PM 34.5839 -106.8642 284° West 420 483 32,000  Level Albuquerque Center
12:06PM 34.6094 -106.9878 282° West 420 483 32,000 120 Level Albuquerque Center
12:07PM 34.6347 -107.1339 280° West 413 475 32,300 660 Climbing Albuquerque Center
12:08PM 34.6558 -107.2753 284° West 413 475 33,400 840 Climbing Albuquerque Center
12:09PM 34.6808 -107.4017 281° West 399 459 34,000 300 Climbing Albuquerque Center
12:10PM 34.6997 -107.5203 281° West 399 459 34,000  Level Albuquerque Center
12:11PM 34.7244 -107.6694 282° West 399 459 34,000  Level Albuquerque Center
12:12PM 34.7469 -107.8036 279° West 404 465 34,000  Level Albuquerque Center
12:13PM 34.7631 -107.9225 283° West 404 465 34,000  Level Albuquerque Center
12:14PM 34.7875 -108.0542 279° West 404 465 34,000  Level Albuquerque Center
12:15PM 34.8053 -108.1858 282° West 409 471 34,000  Level Albuquerque Center
12:16PM 34.8272 -108.3175 276° West 409 471 34,000  Level Albuquerque Center
12:17PM 34.8389 -108.4494 286° West 409 471 34,000  Level Albuquerque Center
12:18PM 34.8708 -108.5814 283° West 409 471 34,000  Level Albuquerque Center
12:19PM 34.8967 -108.7133 280° West 409 471 34,000  Level Albuquerque Center
12:20PM 34.9178 -108.8531 281° West 403 464 34,000  Level Albuquerque Center
12:21PM 34.9392 -108.9878 281° West 403 464 34,000  Level Albuquerque Center
12:22PM 34.9583 -109.1047 281° West 398 458 34,000  Level Albuquerque Center
12:23PM 34.9811 -109.2497 282° West 398 458 34,000  Level Albuquerque Center
12:24PM 35.0039 -109.3822 281° West 398 458 34,000  Level Albuquerque Center
12:25PM 35.0247 -109.5144 282° West 398 458 34,000  Level Albuquerque Center
12:26PM 35.0456 -109.6319 281° West 391 450 34,000  Level Albuquerque Center
12:27PM 35.0678 -109.7669 282° West 397 457 34,000  Level Albuquerque Center
12:28PM 35.0919 -109.9097 280° West 397 457 34,000  Level Albuquerque Center
12:29PM 35.1119 -110.0425 282° West 392 451 34,000  Level Albuquerque Center
12:30PM 35.1322 -110.1600 281° West 392 451 34,000  Level Albuquerque Center
12:31PM 35.1522 -110.2903 281° West 392 451 34,000  Level Albuquerque Center
12:32PM 35.1736 -110.4308 281° West 392 451 34,000  Level Albuquerque Center
12:33PM 35.1933 -110.5611 282° West 392 451 34,000  Level Albuquerque Center
12:34PM 35.2150 -110.6814 279° West 397 457 34,000  Level Albuquerque Center
12:35PM 35.2322 -110.8094 280° West 397 457 34,000  Level Albuquerque Center
12:36PM 35.2531 -110.9503 281° West 391 450 34,000  Level Albuquerque Center
12:37PM 35.2742 -111.0808 281° West 391 450 34,000 -300 Level Albuquerque Center
12:38PM 35.2933 -111.2014 280° West 391 450 33,500 -840 Descending Albuquerque Center
12:39PM 35.3122 -111.3269 281° West 391 450 32,400 -1,200 Descending Albuquerque Center
12:40PM 35.3328 -111.4578 280° West 390 449 31,200 -720 Descending Albuquerque Center
12:42PM 35.3794 -111.7803 280° West 408 470 30,000 -360 Descending Los Angeles Center
12:43PM 35.3986 -111.9117 280° West 408 470 30,000  Level Los Angeles Center
12:44PM 35.4181 -112.0483 280° West 408 470 30,000  Level Los Angeles Center
12:45PM 35.4369 -112.1853 281° West 408 470 30,000 -660 Level Los Angeles Center
12:46PM 35.4581 -112.3192 280° West 408 470 28,700 -1,140 Descending Los Angeles Center
12:47PM 35.4767 -112.4536 280° West 408 470 27,800 -360 Descending Los Angeles Center
12:48PM 35.4978 -112.6031 281° West 408 470 28,000 60 Climbing Los Angeles Center
12:49PM 35.5181 -112.7325 279° West 402 463 28,000  Level Los Angeles Center
12:50PM 35.5364 -112.8694 279° West 407 468 28,000  Level Los Angeles Center
12:51PM 35.5522 -112.9964 280° West 412 474 28,000 -120 Level Los Angeles Center
12:52PM 35.5725 -113.1389 278° West 417 480 27,800 -1,020 Descending Los Angeles Center
12:53PM 35.5908 -113.2964 279° West 422 486 26,000 -1,800 Descending Los Angeles Center
12:54PM 35.6086 -113.4339 279° West 422 486 24,200 -1,800 Descending Los Angeles Center
12:55PM 35.6261 -113.5661 281° West 410 472 22,500 -1,800 Descending Los Angeles Center
12:56PM 35.6453 -113.6856 279° West 405 466 20,600 -1,800 Descending Los Angeles Center
12:57PM 35.6625 -113.8156 280° West 400 460 18,900 -1,800 Descending Los Angeles Center
12:58PM 35.6814 -113.9453 281° West 390 449 17,100 -1,740 Descending Los Angeles Center
12:59PM 35.7003 -114.0700 277° West 385 443 15,500 -1,860 Descending Los Angeles Center
01:00PM 35.7103 -114.1697 282° West 372 428 13,900 -1,800 Descending Los Angeles Center
01:01PM 35.7331 -114.3022 292° West 361 415 12,000 -1,020 Descending Los Angeles Center
01:02PM 35.7636 -114.3936 340° North 300 345 11,700 -900 Descending Los Angeles Center
01:03PM 35.8456 -114.4303 338° Northwest 305 351 10,300 -900 Descending Los Angeles Center
01:04PM 35.9211 -114.4672 338° Northwest 277 319 10,000 -180 Descending Los Angeles Center
01:05PM 36.0011 -114.5067 310° West 274 315 10,000 -420 Level Los Angeles Center
01:06PM 36.0436 -114.5700 285° West 242 278 9,200 -840 Descending Los Angeles Center
01:07PM 36.0569 -114.6314 283° West 220 253 8,300 -600 Descending Los Angeles Center
01:09PM 36.0747 -114.7286 271° West 232 267 8,000 -480 Descending Los Angeles Center
01:10PM 36.0756 -114.8108 268° West 234 269 7,300 -840 Descending Los Angeles Center
01:10PM 36.0742 -114.8647 268° West 231 266 6,500 -960 Descending Los Angeles Center